createdAt,value
2022-07-27T00:01:05.589Z,23.40
2022-07-27T00:03:33.234Z,23.40
2022-07-27T00:06:00.754Z,23.40
2022-07-27T00:08:28.289Z,23.40
2022-07-27T00:10:55.889Z,23.40
2022-07-27T00:13:23.620Z,23.40
2022-07-27T00:15:52.125Z,23.40
2022-07-27T00:18:19.761Z,23.30
2022-07-27T00:20:47.264Z,23.30
2022-07-27T00:23:14.803Z,23.30
2022-07-27T00:25:42.652Z,23.30
2022-07-27T00:28:10.268Z,23.30
2022-07-27T00:30:38.083Z,23.20
2022-07-27T00:33:06.119Z,23.20
2022-07-27T00:35:33.635Z,23.20
2022-07-27T00:38:03.521Z,23.10
2022-07-27T00:40:31.705Z,23.10
2022-07-27T00:42:59.172Z,23.00
2022-07-27T00:45:26.861Z,23.00
2022-07-27T00:47:55.235Z,22.90
2022-07-27T00:50:23.375Z,22.90
2022-07-27T00:52:51.601Z,22.80
2022-07-27T00:55:19.451Z,22.80
2022-07-27T00:57:58.148Z,22.80
2022-07-27T01:00:30.293Z,22.70
2022-07-27T01:02:58.065Z,22.70
2022-07-27T01:05:26.534Z,22.60
2022-07-27T01:08:06.813Z,22.60
2022-07-27T01:10:35.442Z,22.60
2022-07-27T01:13:03.496Z,22.50
2022-07-27T01:15:35.207Z,22.50
2022-07-27T01:18:11.714Z,22.50
2022-07-27T01:20:42.892Z,22.40
2022-07-27T01:23:11.132Z,22.40
2022-07-27T01:25:41.250Z,22.30
2022-07-27T01:28:08.828Z,22.30
2022-07-27T01:30:36.344Z,22.30
2022-07-27T01:33:05.534Z,22.20
2022-07-27T01:35:33.811Z,22.20
2022-07-27T01:38:01.800Z,22.10
2022-07-27T01:40:29.592Z,22.10
2022-07-27T01:42:57.164Z,22.00
2022-07-27T01:45:24.584Z,21.90
2022-07-27T01:47:52.029Z,21.80
2022-07-27T01:50:19.340Z,21.80
2022-07-27T01:52:46.789Z,21.70
2022-07-27T01:55:14.728Z,21.70
2022-07-27T01:57:42.256Z,21.60
2022-07-27T02:00:11.984Z,21.50
2022-07-27T02:02:42.817Z,21.50
2022-07-27T02:05:13.287Z,21.40
2022-07-27T02:07:41.398Z,21.30
2022-07-27T02:10:10.231Z,21.20
2022-07-27T02:12:38.226Z,21.20
2022-07-27T02:15:15.442Z,21.10
2022-07-27T02:17:44.986Z,21.10
2022-07-27T02:20:14.517Z,21.00
2022-07-27T02:22:42.484Z,21.00
2022-07-27T02:25:12.123Z,20.90
2022-07-27T02:27:41.208Z,20.90
2022-07-27T02:30:10.668Z,20.80
2022-07-27T02:32:38.003Z,20.80
2022-07-27T02:35:18.800Z,20.80
2022-07-27T02:37:48.712Z,20.70
2022-07-27T02:40:18.090Z,20.70
2022-07-27T02:42:46.506Z,20.60
2022-07-27T02:45:17.269Z,20.60
2022-07-27T02:47:45.260Z,20.50
2022-07-27T02:50:12.796Z,20.50
2022-07-27T02:52:40.460Z,20.40
2022-07-27T02:55:08.448Z,20.40
2022-07-27T02:57:37.855Z,20.40
2022-07-27T03:00:07.520Z,20.40
2022-07-27T03:02:35.213Z,20.30
2022-07-27T03:05:07.515Z,20.30
2022-07-27T03:07:37.637Z,20.20
2022-07-27T03:10:06.185Z,20.20
2022-07-27T03:12:34.841Z,20.10
2022-07-27T03:15:02.549Z,20.00
2022-07-27T03:17:30.811Z,20.00
2022-07-27T03:19:58.522Z,20.00
2022-07-27T03:22:26.192Z,19.90
2022-07-27T03:24:53.701Z,19.90
2022-07-27T03:27:21.463Z,19.80
2022-07-27T03:29:48.959Z,19.80
2022-07-27T03:32:16.560Z,19.80
2022-07-27T03:34:44.090Z,19.70
2022-07-27T03:37:11.450Z,19.70
2022-07-27T03:39:38.990Z,19.60
2022-07-27T03:42:06.726Z,19.60
2022-07-27T03:44:34.245Z,19.60
2022-07-27T03:47:01.755Z,19.50
2022-07-27T03:49:29.411Z,19.50
2022-07-27T03:51:56.779Z,19.50
2022-07-27T03:54:24.264Z,19.50
2022-07-27T03:56:51.954Z,19.50
2022-07-27T03:59:19.369Z,19.60
2022-07-27T04:01:47.431Z,19.60
2022-07-27T04:04:14.998Z,19.70
2022-07-27T04:06:42.604Z,19.70
2022-07-27T04:09:10.274Z,19.80
2022-07-27T04:11:43.553Z,19.90
2022-07-27T04:14:18.826Z,19.90
2022-07-27T04:16:46.995Z,19.90
2022-07-27T04:19:14.773Z,20.00
2022-07-27T04:21:42.183Z,20.00
2022-07-27T04:24:09.836Z,20.00
2022-07-27T04:26:37.431Z,20.10
2022-07-27T04:29:05.331Z,20.20
2022-07-27T04:31:33.164Z,20.20
2022-07-27T04:34:01.059Z,20.40
2022-07-27T04:36:28.809Z,20.50
2022-07-27T04:38:56.501Z,20.50
2022-07-27T04:41:23.930Z,20.60
2022-07-27T04:44:01.195Z,20.70
2022-07-27T04:46:29.902Z,20.70
2022-07-27T04:48:58.019Z,20.80
2022-07-27T04:51:28.994Z,20.80
2022-07-27T04:54:00.321Z,20.90
2022-07-27T04:56:27.903Z,21.00
2022-07-27T04:58:55.750Z,21.00
2022-07-27T05:01:23.736Z,21.10
2022-07-27T05:03:52.302Z,21.10
2022-07-27T05:06:20.068Z,21.20
2022-07-27T05:08:47.513Z,21.20
2022-07-27T05:11:14.931Z,21.30
2022-07-27T05:13:42.313Z,21.30
2022-07-27T05:16:10.941Z,21.30
2022-07-27T05:18:39.602Z,21.30
2022-07-27T05:21:08.211Z,21.40
2022-07-27T05:23:35.973Z,21.50
2022-07-27T05:26:04.008Z,21.50
2022-07-27T05:28:31.322Z,21.60
2022-07-27T05:30:58.917Z,21.70
2022-07-27T05:33:26.312Z,21.70
2022-07-27T05:35:56.182Z,21.80
2022-07-27T05:38:23.750Z,21.80
2022-07-27T05:40:53.050Z,21.80
2022-07-27T05:43:20.680Z,21.80
2022-07-27T05:45:48.302Z,21.80
2022-07-27T05:48:16.062Z,21.80
2022-07-27T05:50:43.850Z,21.80
2022-07-27T05:53:11.424Z,21.80
2022-07-27T05:55:58.102Z,21.70
2022-07-27T05:58:29.480Z,21.80
2022-07-27T06:00:57.395Z,21.80
2022-07-27T06:03:25.039Z,21.80
2022-07-27T06:05:52.615Z,21.80
2022-07-27T06:08:20.128Z,21.90
2022-07-27T06:10:47.734Z,22.00
2022-07-27T06:13:15.423Z,22.00
2022-07-27T06:15:42.953Z,22.10
2022-07-27T06:18:18.174Z,22.10
2022-07-27T06:20:45.817Z,22.10
2022-07-27T06:23:13.743Z,22.20
2022-07-27T06:25:41.220Z,22.20
2022-07-27T06:28:09.291Z,22.30
2022-07-27T06:30:36.812Z,22.30
2022-07-27T06:33:04.998Z,22.30
2022-07-27T06:35:34.391Z,22.30
2022-07-27T06:38:03.492Z,22.40
2022-07-27T06:40:32.235Z,22.30
2022-07-27T06:43:00.217Z,22.30
2022-07-27T06:45:28.433Z,22.30
2022-07-27T06:47:55.868Z,22.30
2022-07-27T06:50:23.513Z,22.30
2022-07-27T06:52:51.071Z,22.20
2022-07-27T06:55:18.554Z,22.20
2022-07-27T06:57:46.663Z,22.30
2022-07-27T07:00:15.279Z,22.20
2022-07-27T07:02:53.803Z,22.20
2022-07-27T07:05:21.524Z,22.10
2022-07-27T07:07:49.495Z,22.10
2022-07-27T07:10:17.290Z,22.00
2022-07-27T07:12:44.820Z,22.00
2022-07-27T07:15:13.311Z,22.00
2022-07-27T07:17:41.203Z,22.00
2022-07-27T07:20:09.700Z,21.90
2022-07-27T07:22:38.424Z,21.90
2022-07-27T07:25:06.570Z,21.90
2022-07-27T07:27:34.199Z,21.90
2022-07-27T07:30:03.012Z,21.90
2022-07-27T07:32:33.592Z,22.00
2022-07-27T07:35:03.886Z,22.00
2022-07-27T07:37:33.950Z,22.10
2022-07-27T07:40:32.147Z,22.20
2022-07-27T07:43:00.126Z,22.30
2022-07-27T07:45:29.387Z,22.60
2022-07-27T07:47:58.052Z,22.90
2022-07-27T07:50:25.925Z,23.50
2022-07-27T07:52:54.905Z,24.20
2022-07-27T07:55:27.749Z,24.90
2022-07-27T07:57:56.905Z,25.50
2022-07-27T08:00:24.732Z,25.90
2022-07-27T08:02:54.618Z,26.30
2022-07-27T08:05:22.247Z,26.40
2022-07-27T08:07:50.485Z,26.40
2022-07-27T08:10:20.172Z,26.40
2022-07-27T08:12:51.217Z,26.30
2022-07-27T08:15:19.389Z,26.10
2022-07-27T08:17:47.089Z,26.00
2022-07-27T08:20:15.654Z,25.90
2022-07-27T08:22:44.868Z,25.70
2022-07-27T08:25:13.575Z,25.60
2022-07-27T08:27:41.171Z,25.50
2022-07-27T08:30:11.749Z,25.40
2022-07-27T08:32:55.010Z,25.30
2022-07-27T08:35:23.212Z,25.30
2022-07-27T08:37:51.352Z,25.50
2022-07-27T08:43:08.197Z,26.10
2022-07-27T08:45:37.175Z,26.40
2022-07-27T08:48:05.699Z,26.80
2022-07-27T08:50:34.804Z,27.00
2022-07-27T08:53:06.454Z,27.20
2022-07-27T08:55:39.115Z,27.50
2022-07-27T08:58:08.717Z,27.80
2022-07-27T09:00:39.988Z,28.00
2022-07-27T09:03:07.790Z,28.10
2022-07-27T09:05:44.807Z,28.10
2022-07-27T09:08:17.777Z,27.90
2022-07-27T09:10:45.414Z,27.80
2022-07-27T09:13:33.811Z,27.80
2022-07-27T09:16:17.554Z,27.70
2022-07-27T09:18:46.110Z,27.90
2022-07-27T09:21:18.120Z,28.00
2022-07-27T09:23:51.917Z,28.00
2022-07-27T09:26:32.345Z,28.00
2022-07-27T09:29:02.489Z,27.90
2022-07-27T09:31:31.555Z,27.80
2022-07-27T09:34:03.262Z,27.60
2022-07-27T09:36:31.191Z,27.20
2022-07-27T09:39:03.158Z,26.90
2022-07-27T09:41:50.758Z,26.60
2022-07-27T09:44:34.806Z,26.30
2022-07-27T09:47:30.371Z,26.00
2022-07-27T09:50:17.563Z,25.60
2022-07-27T09:52:46.211Z,25.40
2022-07-27T09:55:14.267Z,25.10
2022-07-27T09:57:54.243Z,24.90
2022-07-27T10:00:24.365Z,24.70
2022-07-27T10:02:53.765Z,24.60
2022-07-27T10:05:22.673Z,24.50
2022-07-27T10:07:52.285Z,24.40
2022-07-27T10:10:20.807Z,24.30
2022-07-27T10:12:54.191Z,24.30
2022-07-27T10:15:24.442Z,24.20
2022-07-27T10:18:07.694Z,24.10
2022-07-27T10:20:39.693Z,24.20
2022-07-27T10:23:07.733Z,24.30
2022-07-27T10:25:38.103Z,24.30
2022-07-27T10:28:18.248Z,24.30
2022-07-27T10:30:49.404Z,24.50
2022-07-27T10:33:47.467Z,24.50
2022-07-27T10:36:27.836Z,24.50
2022-07-27T10:38:57.824Z,24.60
2022-07-27T10:41:31.150Z,24.80
2022-07-27T10:44:17.762Z,25.00
2022-07-27T10:46:50.727Z,25.20
2022-07-27T10:49:40.555Z,25.30
2022-07-27T10:52:43.356Z,25.50
2022-07-27T10:55:31.163Z,25.60
2022-07-27T10:58:10.739Z,25.60
2022-07-27T11:00:54.592Z,25.70
2022-07-27T11:03:33.174Z,25.70
2022-07-27T11:09:52.543Z,25.90
2022-07-27T11:11:53.525Z,26.10
2022-07-27T11:14:30.900Z,26.20
2022-07-27T11:17:24.415Z,26.20
2022-07-27T11:19:55.693Z,26.20
2022-07-27T11:25:29.058Z,26.30
2022-07-27T11:27:56.948Z,26.40
2022-07-27T11:30:28.672Z,26.40
2022-07-27T11:32:56.411Z,26.30
2022-07-27T11:35:24.141Z,26.40
2022-07-27T11:38:05.058Z,26.40
2022-07-27T11:40:57.099Z,26.40
2022-07-27T11:43:39.239Z,26.40
2022-07-27T11:46:24.025Z,26.40
2022-07-27T11:49:07.840Z,26.50
2022-07-27T11:52:04.765Z,26.50
2022-07-27T11:54:35.342Z,26.60
2022-07-27T11:57:05.801Z,26.60
2022-07-27T11:59:38.447Z,26.60
2022-07-27T12:02:05.805Z,26.70
2022-07-27T12:04:38.549Z,26.80
2022-07-27T12:07:23.811Z,26.80
2022-07-27T12:09:56.853Z,26.80
2022-07-27T12:12:24.204Z,26.80
2022-07-27T12:14:57.190Z,26.90
2022-07-27T12:17:32.579Z,26.90
2022-07-27T12:20:09.013Z,27.00
2022-07-27T12:22:46.360Z,27.20
2022-07-27T12:25:19.477Z,27.30
2022-07-27T12:28:18.111Z,27.50
2022-07-27T12:30:51.503Z,27.60
2022-07-27T12:33:38.256Z,27.60
2022-07-27T12:36:07.952Z,27.60
2022-07-27T12:38:43.688Z,27.60
2022-07-27T12:41:22.687Z,27.50
2022-07-27T12:44:09.925Z,27.60
2022-07-27T12:46:53.035Z,27.60
2022-07-27T12:49:25.149Z,27.60
2022-07-27T12:51:52.753Z,27.60
2022-07-27T12:54:20.529Z,27.70
2022-07-27T12:56:49.791Z,27.70
2022-07-27T12:59:23.259Z,27.70
2022-07-27T13:01:52.942Z,27.70
2022-07-27T13:04:20.492Z,27.70
2022-07-27T13:06:48.045Z,27.70
2022-07-27T13:09:16.250Z,27.80
2022-07-27T13:11:47.881Z,27.80
2022-07-27T13:14:15.873Z,27.90
2022-07-27T13:16:43.439Z,28.00
2022-07-27T13:19:14.175Z,28.10
2022-07-27T13:21:41.858Z,28.20
2022-07-27T13:24:10.238Z,28.30
2022-07-27T13:26:38.324Z,28.40
2022-07-27T13:29:05.759Z,28.40
2022-07-27T13:31:33.853Z,28.40
2022-07-27T13:34:01.661Z,28.40
2022-07-27T13:36:30.196Z,28.50
2022-07-27T13:38:57.634Z,28.50
2022-07-27T13:41:25.545Z,28.60
2022-07-27T13:43:52.916Z,28.60
2022-07-27T13:46:20.387Z,28.50
2022-07-27T13:48:47.945Z,28.50
2022-07-27T13:51:15.503Z,28.50
2022-07-27T13:53:43.053Z,28.40
2022-07-27T13:56:10.987Z,28.40
2022-07-27T13:58:40.934Z,28.30
2022-07-27T14:01:08.491Z,28.30
2022-07-27T14:03:36.156Z,28.40
2022-07-27T14:06:03.705Z,28.40
2022-07-27T14:08:33.980Z,28.40
2022-07-27T14:11:02.168Z,28.50
2022-07-27T14:13:32.619Z,28.60
2022-07-27T14:16:01.398Z,28.60
2022-07-27T14:18:30.567Z,28.60
2022-07-27T14:21:06.511Z,28.60
2022-07-27T14:23:35.071Z,28.50
2022-07-27T14:26:05.403Z,28.60
2022-07-27T14:28:33.674Z,28.50
2022-07-27T14:31:03.774Z,28.50
2022-07-27T14:33:36.394Z,28.40
2022-07-27T14:36:06.431Z,28.40
2022-07-27T14:38:34.246Z,28.20
2022-07-27T14:41:01.782Z,28.20
2022-07-27T14:43:30.308Z,28.10
2022-07-27T14:45:58.939Z,28.00
2022-07-27T14:48:42.565Z,27.90
2022-07-27T14:51:14.873Z,27.90
2022-07-27T14:53:42.328Z,27.80
2022-07-27T14:56:09.748Z,27.80
2022-07-27T14:58:37.205Z,27.90
2022-07-27T15:01:05.196Z,27.90
2022-07-27T15:03:32.791Z,27.90
2022-07-27T15:06:00.289Z,27.90
2022-07-27T15:08:28.193Z,27.90
2022-07-27T15:10:57.380Z,28.00
2022-07-27T15:13:24.933Z,28.00
2022-07-27T15:15:53.017Z,28.00
2022-07-27T15:18:21.003Z,28.00
2022-07-27T15:20:48.752Z,28.00
2022-07-27T15:23:16.508Z,28.00
2022-07-27T15:25:44.064Z,28.00
2022-07-27T15:28:12.309Z,28.00
2022-07-27T15:30:39.957Z,27.90
2022-07-27T15:33:07.643Z,27.90
2022-07-27T15:35:35.937Z,27.90
2022-07-27T15:38:03.687Z,28.00
2022-07-27T15:40:37.245Z,27.90
2022-07-27T15:43:06.045Z,27.90
2022-07-27T15:45:38.303Z,27.90
2022-07-27T15:48:07.077Z,27.80
2022-07-27T15:50:35.945Z,27.80
2022-07-27T15:53:04.315Z,27.80
2022-07-27T15:55:33.292Z,27.70
2022-07-27T15:58:00.978Z,27.70
2022-07-27T16:00:28.775Z,27.70
2022-07-27T16:02:56.895Z,27.80
2022-07-27T16:05:24.556Z,27.80
2022-07-27T16:07:51.978Z,27.70
2022-07-27T16:10:19.804Z,27.60
2022-07-27T16:12:47.324Z,27.60
2022-07-27T16:15:14.948Z,27.50
2022-07-27T16:17:43.785Z,27.40
2022-07-27T16:20:11.598Z,27.30
2022-07-27T16:22:39.432Z,27.20
2022-07-27T16:25:07.156Z,27.10
2022-07-27T16:27:34.636Z,27.00
2022-07-27T16:30:02.160Z,27.00
2022-07-27T16:32:29.681Z,26.90
2022-07-27T16:34:57.006Z,26.80
2022-07-27T16:37:25.595Z,26.80
2022-07-27T16:39:52.931Z,26.70
2022-07-27T16:42:21.123Z,26.70
2022-07-27T16:44:49.170Z,26.70
2022-07-27T16:47:16.530Z,26.60
2022-07-27T16:49:44.249Z,26.60
2022-07-27T16:52:11.805Z,26.60
2022-07-27T16:54:39.934Z,26.60
2022-07-27T16:57:09.180Z,26.60
2022-07-27T16:59:39.018Z,26.50
2022-07-27T17:02:06.944Z,26.40
2022-07-27T17:04:34.685Z,26.40
2022-07-27T17:07:02.168Z,26.40
2022-07-27T17:09:29.895Z,26.30
2022-07-27T17:11:57.202Z,26.30
2022-07-27T17:14:26.494Z,26.30
2022-07-27T17:16:54.564Z,26.30
2022-07-27T17:19:22.332Z,26.30
2022-07-27T17:21:49.989Z,26.30
2022-07-27T17:24:18.032Z,26.30
2022-07-27T17:26:45.498Z,26.20
2022-07-27T17:29:13.298Z,26.20
2022-07-27T17:31:41.725Z,26.20
2022-07-27T17:34:09.375Z,26.10
2022-07-27T17:36:36.805Z,26.00
2022-07-27T17:39:05.907Z,25.90
2022-07-27T17:41:33.641Z,25.90
2022-07-27T17:44:02.655Z,25.90
2022-07-27T17:46:33.116Z,25.80
2022-07-27T17:49:03.388Z,25.70
2022-07-27T17:51:31.432Z,25.70
2022-07-27T17:53:59.095Z,25.60
2022-07-27T17:56:26.688Z,25.60
2022-07-27T17:58:54.164Z,25.50
2022-07-27T18:01:46.893Z,25.40
2022-07-27T18:04:09.609Z,25.40
2022-07-27T18:06:37.188Z,25.30
2022-07-27T18:09:06.610Z,25.20
2022-07-27T18:11:34.369Z,25.20
2022-07-27T18:14:01.997Z,25.10
2022-07-27T18:16:29.631Z,25.00
2022-07-27T18:18:57.087Z,25.00
2022-07-27T18:21:24.439Z,24.90
2022-07-27T18:23:52.037Z,24.90
2022-07-27T18:26:19.669Z,24.80
2022-07-27T18:28:47.960Z,24.80
2022-07-27T18:31:18.066Z,24.80
2022-07-27T18:33:47.250Z,24.70
2022-07-27T18:36:15.611Z,24.70
2022-07-27T18:38:44.998Z,24.60
2022-07-27T18:41:14.023Z,24.60
2022-07-27T18:43:41.649Z,24.50
2022-07-27T18:46:09.374Z,24.50
2022-07-27T18:48:37.124Z,24.40
2022-07-27T18:51:04.543Z,24.40
2022-07-27T18:53:32.145Z,24.30
2022-07-27T18:55:59.997Z,24.30
2022-07-27T18:58:27.737Z,24.20
2022-07-27T19:00:55.786Z,24.10
2022-07-27T19:03:24.679Z,24.10
2022-07-27T19:05:55.498Z,24.00
2022-07-27T19:08:24.019Z,24.00
2022-07-27T19:10:51.894Z,23.90
2022-07-27T19:13:19.754Z,23.90
2022-07-27T19:15:47.203Z,23.90
2022-07-27T19:18:14.730Z,23.80
2022-07-27T19:20:42.495Z,23.70
2022-07-27T19:23:10.389Z,23.70
2022-07-27T19:25:37.970Z,23.70
2022-07-27T19:28:05.729Z,23.60
2022-07-27T19:30:33.381Z,23.50
2022-07-27T19:33:01.232Z,23.50
2022-07-27T19:35:28.632Z,23.40
2022-07-27T19:37:56.161Z,23.30
2022-07-27T19:43:11.418Z,23.20
2022-07-27T19:45:38.899Z,23.10
2022-07-27T19:48:08.228Z,23.10
2022-07-27T19:50:35.845Z,23.00
2022-07-27T19:53:04.247Z,23.00
2022-07-27T19:55:31.686Z,23.00
2022-07-27T19:57:59.628Z,22.90
2022-07-27T20:00:27.109Z,22.80
2022-07-27T20:02:54.771Z,22.70
2022-07-27T20:05:22.757Z,22.70
2022-07-27T20:07:50.155Z,22.60
2022-07-27T20:10:17.490Z,22.50
2022-07-27T20:12:44.888Z,22.40
2022-07-27T20:15:12.569Z,22.40
2022-07-27T20:17:40.791Z,22.30
2022-07-27T20:20:10.782Z,22.20
2022-07-27T20:22:40.794Z,22.20
2022-07-27T20:25:10.446Z,22.20
2022-07-27T20:27:38.935Z,22.00
2022-07-27T20:30:08.089Z,21.90
2022-07-27T20:32:35.984Z,21.90
2022-07-27T20:35:04.871Z,21.80
2022-07-27T20:37:32.752Z,21.70
2022-07-27T20:40:00.539Z,21.60
2022-07-27T20:42:28.017Z,21.50
2022-07-27T20:44:55.433Z,21.40
2022-07-27T20:47:23.080Z,21.40
2022-07-27T20:49:51.269Z,21.30
2022-07-27T20:52:19.095Z,21.20
2022-07-27T20:54:46.836Z,21.10
2022-07-27T20:57:14.264Z,21.10
2022-07-27T20:59:41.711Z,21.00
2022-07-27T21:02:09.446Z,21.00
2022-07-27T21:04:37.163Z,20.90
2022-07-27T21:07:04.620Z,20.90
2022-07-27T21:09:32.390Z,20.80
2022-07-27T21:12:00.110Z,20.70
2022-07-27T21:14:27.696Z,20.70
2022-07-27T21:16:55.360Z,20.60
2022-07-27T21:19:22.955Z,20.50
2022-07-27T21:21:50.456Z,20.40
2022-07-27T21:24:19.887Z,20.40
2022-07-27T21:26:50.682Z,20.30
2022-07-27T21:29:19.855Z,20.30
2022-07-27T21:31:49.245Z,20.20
2022-07-27T21:34:20.517Z,20.20
2022-07-27T21:36:48.368Z,20.20
2022-07-27T21:39:18.029Z,20.10
2022-07-27T21:41:45.741Z,20.00
2022-07-27T21:44:13.574Z,19.90
2022-07-27T21:46:41.593Z,19.90
2022-07-27T21:49:10.272Z,19.80
2022-07-27T21:51:38.013Z,19.80
2022-07-27T21:54:06.340Z,19.70
2022-07-27T21:56:41.222Z,19.60
2022-07-27T21:59:09.460Z,19.60
2022-07-27T22:01:37.125Z,19.50
2022-07-27T22:04:06.140Z,19.40
2022-07-27T22:06:33.792Z,19.40
2022-07-27T22:09:01.531Z,19.30
2022-07-27T22:11:29.225Z,19.30
2022-07-27T22:13:56.823Z,19.30
2022-07-27T22:16:24.520Z,19.20
2022-07-27T22:18:52.068Z,19.20
2022-07-27T22:21:19.491Z,19.10
2022-07-27T22:23:49.269Z,19.10
2022-07-27T22:26:17.330Z,19.10
2022-07-27T22:28:44.712Z,19.00
2022-07-27T22:31:21.780Z,19.00
2022-07-27T22:33:51.129Z,19.00
2022-07-27T22:36:19.202Z,18.90
2022-07-27T22:38:46.644Z,18.90
2022-07-27T22:41:14.201Z,18.80
2022-07-27T22:43:41.728Z,18.80
2022-07-27T22:46:09.954Z,18.80
2022-07-27T22:48:38.214Z,18.70
2022-07-27T22:51:05.635Z,18.70
2022-07-27T22:53:33.323Z,18.60
2022-07-27T22:56:00.616Z,18.60
2022-07-27T22:58:28.039Z,18.50
2022-07-27T23:00:59.437Z,18.50
2022-07-27T23:03:27.619Z,18.50
2022-07-27T23:05:54.966Z,18.40
2022-07-27T23:08:22.341Z,18.40
2022-07-27T23:10:49.805Z,18.30
2022-07-27T23:13:18.909Z,18.20
2022-07-27T23:15:47.047Z,18.20
2022-07-27T23:18:15.363Z,18.10
2022-07-27T23:20:43.063Z,18.10
2022-07-27T23:23:16.670Z,18.00
2022-07-27T23:25:45.946Z,18.00
2022-07-27T23:28:15.187Z,18.00
2022-07-27T23:30:43.249Z,17.90
2022-07-27T23:33:10.827Z,17.90
2022-07-27T23:35:38.409Z,17.90
2022-07-27T23:38:06.131Z,17.80
2022-07-27T23:40:33.809Z,17.80
2022-07-27T23:43:01.968Z,17.80
2022-07-27T23:45:29.600Z,17.70
2022-07-27T23:47:57.375Z,17.70
2022-07-27T23:50:25.117Z,17.70
2022-07-27T23:52:52.767Z,17.60
2022-07-27T23:55:20.372Z,17.60
2022-07-27T23:57:47.712Z,17.60
